Weather History for Okmulgee, OK

Change the Weather History Date:

Thursday, October 4, 2012

  Actual Average (KMKO) Record (KMKO)
Temperature  
Mean Temperature 68 °F -  
Max Temperature 80 °F 76 °F 93 °F (2006)
Min Temperature 57 °F 52 °F 39 °F (2014)
Cooling Degree Days 4    
Growing Degree Days 18 (Base 50)    
Moisture  
Dew Point 56 °F    
Average Humidity 64    
Maximum Humidity 88    
Minimum Humidity 51    
Precipitation  
Precipitation 0.00 in - - ()
Sea Level Pressure  
Sea Level Pressure 30.09 in    
Wind  
Wind Speed 6 mph (SSE)    
Max Wind Speed 13 mph    
Max Gust Speed 16 mph    
Visibility 10 miles    
Events      
Averages and records for this station are not official NWS values.
T = Trace of Precipitation, MM = Missing Value Source: NWS Daily Summary

Daily Weather History Graph

Daily Weather History Graph

Search for Another Location

Airport:

Trip Planner

Search our weather history database for the weather conditions in past years. The results will help you decide how hot, cold, wet, or windy it might be!

Date:

Astronomy

Oct. 04, 2012 Rise Set
Actual Time 7:21 AM CDT 7:02 PM CDT
Civil Twilight 6:56 AM CDT 7:27 PM CDT
Nautical Twilight 6:26 AM CDT 7:57 PM CDT
Astronomical Twilight 5:56 AM CDT 8:27 PM CDT
Moon 9:48 PM CDT (10/4) 11:30 AM CDT (10/4)
Length of Visible Light 12h 31m
Length of Day
11h 40m
Waning Gibbous, 82% of the Moon is Illuminated
Oct 4
Waning Gibbous
Oct 8
Last Quarter
Oct 15
New
Oct 21
First Quarter
Oct 29
Full

Hourly Weather History & Observations

Time (CDT) Temp. Heat Index Dew Point Humidity Pressure Visibility Wind Dir Wind Speed Gust Speed Precip Events Conditions
12:15 AM 64.4 °F - 53.6 °F 68% 30.01 in 10.0 mi SSE 4.6 mph - N/A   Clear
12:35 AM 64.4 °F - 53.6 °F 68% 30.01 in 10.0 mi SSE 5.8 mph - N/A   Clear
12:55 AM 64.4 °F - 53.6 °F 68% 30.02 in 10.0 mi South 4.6 mph - N/A   Clear
1:15 AM 64.4 °F - 53.6 °F 68% 30.02 in 10.0 mi South 5.8 mph - N/A   Clear
1:35 AM 64.4 °F - 53.6 °F 68% 30.02 in 10.0 mi SSE 4.6 mph - N/A   Clear
1:55 AM 62.6 °F - 53.6 °F 72% 30.02 in 10.0 mi SSE 3.5 mph - N/A   Clear
2:15 AM 62.6 °F - 53.6 °F 72% 30.02 in 10.0 mi SSE 4.6 mph - N/A   Clear
2:35 AM 62.6 °F - 53.6 °F 72% 30.02 in 10.0 mi SSE 4.6 mph - N/A   Clear
2:55 AM 60.8 °F - 53.6 °F 77% 30.02 in 10.0 mi SSE 5.8 mph - N/A   Clear
3:15 AM 62.6 °F - 53.6 °F 72% 30.02 in 10.0 mi South 6.9 mph - N/A   Clear
3:35 AM 64.4 °F - 53.6 °F 68% 30.02 in 10.0 mi South 6.9 mph - N/A   Clear
3:55 AM 64.4 °F - 53.6 °F 68% 30.03 in 10.0 mi South 6.9 mph - N/A   Clear
4:15 AM 64.4 °F - 53.6 °F 68% 30.04 in 10.0 mi South 3.5 mph - N/A   Clear
4:35 AM 62.6 °F - 53.6 °F 72% 30.04 in 10.0 mi SSE 4.6 mph - N/A   Clear
4:55 AM 60.8 °F - 53.6 °F 77% 30.05 in 10.0 mi SSE 5.8 mph - N/A   Clear
5:15 AM 60.8 °F - 53.6 °F 77% 30.05 in 10.0 mi SSE 5.8 mph - N/A   Clear
5:35 AM 60.8 °F - 53.6 °F 77% 30.06 in 10.0 mi SSE 6.9 mph - N/A   Clear
5:55 AM 60.8 °F - 53.6 °F 77% 30.07 in 10.0 mi SSE 4.6 mph - N/A   Clear
6:15 AM 60.8 °F - 53.6 °F 77% 30.08 in 10.0 mi SE 3.5 mph - N/A   Clear
6:35 AM 60.8 °F - 53.6 °F 77% 30.09 in 10.0 mi ESE 4.6 mph - N/A   Clear
6:55 AM 59.0 °F - 53.6 °F 82% 30.11 in 10.0 mi NE 4.6 mph - N/A   Clear
7:15 AM 57.2 °F - 53.6 °F 88% 30.13 in 10.0 mi NE 5.8 mph - N/A   Clear
7:35 AM 57.2 °F - 53.6 °F 88% 30.11 in 10.0 mi SE 3.5 mph - N/A   Clear
7:55 AM 59.0 °F - 53.6 °F 82% 30.12 in 10.0 mi Calm Calm - N/A   Clear
8:15 AM 60.8 °F - 55.4 °F 82% 30.12 in 10.0 mi Calm Calm - N/A   Clear
8:35 AM 64.4 °F - 57.2 °F 77% 30.13 in 10.0 mi Calm Calm - N/A   Clear
8:55 AM 66.2 °F - 57.2 °F 73% 30.13 in 10.0 mi SSE 3.5 mph - N/A   Clear
9:15 AM 68.0 °F - 59.0 °F 73% 30.13 in 10.0 mi SSE 8.1 mph - N/A   Clear
9:35 AM 69.8 °F - 59.0 °F 68% 30.13 in 10.0 mi South 11.5 mph - N/A   Clear
9:55 AM 71.6 °F - 59.0 °F 64% 30.13 in 10.0 mi South 11.5 mph - N/A   Clear
10:15 AM 71.6 °F - 60.8 °F 69% 30.13 in 10.0 mi South 10.4 mph - N/A   Clear
10:35 AM 73.4 °F - 60.8 °F 65% 30.13 in 10.0 mi South 9.2 mph - N/A   Clear
10:55 AM 77.0 °F - 60.8 °F 57% 30.13 in 10.0 mi South 11.5 mph - N/A   Clear
11:15 AM 77.0 °F - 60.8 °F 57% 30.13 in 10.0 mi SSW 10.4 mph - N/A   Clear
11:35 AM 77.0 °F - 60.8 °F 57% 30.13 in 10.0 mi South 9.2 mph 16.1 mph N/A   Clear
11:55 AM 78.8 °F - 60.8 °F 54% 30.13 in 10.0 mi SSW 9.2 mph - N/A   Clear
12:15 PM 78.8 °F - 60.8 °F 54% 30.13 in 10.0 mi SW 8.1 mph - N/A   Clear
12:35 PM 80.6 °F 81.8 °F 62.6 °F 54% 30.12 in 10.0 mi SW 10.4 mph - N/A   Clear
12:55 PM 80.6 °F 81.5 °F 60.8 °F 51% 30.11 in 10.0 mi SSW 6.9 mph - N/A   Clear
1:15 PM 80.6 °F 81.8 °F 62.6 °F 54% 30.11 in 10.0 mi SW 9.2 mph - N/A   Scattered Clouds
1:35 PM 80.6 °F 81.8 °F 62.6 °F 54% 30.11 in 10.0 mi SW 4.6 mph - N/A   Mostly Cloudy
1:55 PM 80.6 °F 81.8 °F 62.6 °F 54% 30.10 in 10.0 mi WSW 9.2 mph - N/A   Overcast
2:15 PM 80.6 °F 81.8 °F 62.6 °F 54% 30.10 in 10.0 mi SW 5.8 mph - N/A   Mostly Cloudy
2:35 PM 80.6 °F 81.8 °F 62.6 °F 54% 30.09 in 10.0 mi SSW 4.6 mph - N/A   Mostly Cloudy
2:55 PM 80.6 °F 81.8 °F 62.6 °F 54% 30.08 in 10.0 mi SSE 5.8 mph - N/A   Scattered Clouds
3:15 PM 80.6 °F 81.8 °F 62.6 °F 54% 30.08 in 10.0 mi South 4.6 mph - N/A   Scattered Clouds
3:35 PM 80.6 °F 81.8 °F 62.6 °F 54% 30.08 in 10.0 mi SSE 4.6 mph - N/A   Scattered Clouds
3:55 PM 80.6 °F 81.8 °F 62.6 °F 54% 30.08 in 10.0 mi SSW 3.5 mph - N/A   Scattered Clouds
4:15 PM 78.8 °F - 62.6 °F 57% 30.08 in 10.0 mi NW 8.1 mph - N/A   Mostly Cloudy
4:35 PM 78.8 °F - 60.8 °F 54% 30.09 in 10.0 mi NW 6.9 mph - N/A   Mostly Cloudy
5:15 PM 78.8 °F - 60.8 °F 54% 30.09 in 10.0 mi NNW 6.9 mph - N/A   Clear
5:35 PM 77.0 °F - 59.0 °F 54% 30.09 in 10.0 mi North 6.9 mph - N/A   Clear
5:55 PM 77.0 °F - 59.0 °F 54% 30.09 in 10.0 mi North 9.2 mph - N/A   Clear
6:15 PM 73.4 °F - 59.0 °F 61% 30.09 in 10.0 mi North 6.9 mph - N/A   Clear
6:35 PM 73.4 °F - 59.0 °F 61% 30.09 in 10.0 mi North 6.9 mph - N/A   Scattered Clouds
6:55 PM 71.6 °F - 57.2 °F 60% 30.09 in 10.0 mi North 8.1 mph - N/A   Scattered Clouds
7:15 PM 71.6 °F - 55.4 °F 57% 30.10 in 10.0 mi North 6.9 mph - N/A   Mostly Cloudy
7:35 PM 71.6 °F - 55.4 °F 57% 30.10 in 10.0 mi North 5.8 mph - N/A   Overcast
7:55 PM 71.6 °F - 53.6 °F 53% 30.11 in 10.0 mi NNE 9.2 mph - N/A   Mostly Cloudy
8:15 PM 69.8 °F - 53.6 °F 56% 30.11 in 10.0 mi North 10.4 mph - N/A   Overcast
8:35 PM 69.8 °F - 51.8 °F 53% 30.12 in 10.0 mi North 12.7 mph - N/A   Mostly Cloudy
8:55 PM 69.8 °F - 51.8 °F 53% 30.13 in 10.0 mi North 10.4 mph - N/A   Mostly Cloudy
9:15 PM 68.0 °F - 51.8 °F 56% 30.14 in 10.0 mi North 11.5 mph - N/A   Scattered Clouds
9:35 PM 68.0 °F - 51.8 °F 56% 30.14 in 10.0 mi North 10.4 mph - N/A   Mostly Cloudy
9:55 PM 66.2 °F - 51.8 °F 60% 30.14 in 10.0 mi North 12.7 mph - N/A   Scattered Clouds
10:15 PM 64.4 °F - 51.8 °F 64% 30.14 in 10.0 mi NNE 11.5 mph - N/A   Clear
10:35 PM 64.4 °F - 51.8 °F 64% 30.14 in 10.0 mi NNE 12.7 mph - N/A   Mostly Cloudy
10:55 PM 64.4 °F - 50.0 °F 59% 30.14 in 10.0 mi North 11.5 mph - N/A   Scattered Clouds
11:15 PM 64.4 °F - 50.0 °F 59% 30.14 in 10.0 mi NNE 9.2 mph - N/A   Scattered Clouds
11:35 PM 62.6 °F - 50.0 °F 63% 30.14 in 10.0 mi North 8.1 mph - N/A   Scattered Clouds
11:55 PM 62.6 °F - 50.0 °F 63% 30.13 in 10.0 mi NNE 8.1 mph - N/A   Scattered Clouds